sensor_id;sensor_type;location;lat;lon;timestamp;P1;durP1;ratioP1;P2;durP2;ratioP2
11699;SDS011;5906;51.660;6.674;2022-07-31T00:00:21;3.90;;;3.50;;
11699;SDS011;5906;51.660;6.674;2022-07-31T00:02:48;4.30;;;3.50;;
11699;SDS011;5906;51.660;6.674;2022-07-31T00:05:16;4.23;;;3.83;;
11699;SDS011;5906;51.660;6.674;2022-07-31T00:07:43;5.00;;;3.47;;
11699;SDS011;5906;51.660;6.674;2022-07-31T00:10:10;4.23;;;3.50;;
11699;SDS011;5906;51.660;6.674;2022-07-31T00:12:37;5.67;;;3.90;;
11699;SDS011;5906;51.660;6.674;2022-07-31T00:15:04;6.10;;;3.50;;
11699;SDS011;5906;51.660;6.674;2022-07-31T00:17:32;6.17;;;3.90;;
11699;SDS011;5906;51.660;6.674;2022-07-31T00:20:00;7.20;;;4.07;;
11699;SDS011;5906;51.660;6.674;2022-07-31T00:22:27;7.50;;;4.00;;
11699;SDS011;5906;51.660;6.674;2022-07-31T00:24:55;6.63;;;3.63;;
11699;SDS011;5906;51.660;6.674;2022-07-31T00:27:22;10.00;;;3.37;;
11699;SDS011;5906;51.660;6.674;2022-07-31T00:29:50;5.47;;;3.27;;
11699;SDS011;5906;51.660;6.674;2022-07-31T00:32:17;6.37;;;3.43;;
11699;SDS011;5906;51.660;6.674;2022-07-31T00:34:44;7.00;;;3.87;;
11699;SDS011;5906;51.660;6.674;2022-07-31T00:37:10;4.67;;;3.53;;
11699;SDS011;5906;51.660;6.674;2022-07-31T00:39:37;4.00;;;3.57;;
11699;SDS011;5906;51.660;6.674;2022-07-31T00:42:04;10.03;;;3.53;;
11699;SDS011;5906;51.660;6.674;2022-07-31T00:44:31;5.37;;;3.33;;
11699;SDS011;5906;51.660;6.674;2022-07-31T00:46:58;6.40;;;4.10;;
11699;SDS011;5906;51.660;6.674;2022-07-31T00:49:27;5.93;;;3.70;;
11699;SDS011;5906;51.660;6.674;2022-07-31T00:52:03;7.80;;;3.90;;
11699;SDS011;5906;51.660;6.674;2022-07-31T00:54:30;3.80;;;3.50;;
11699;SDS011;5906;51.660;6.674;2022-07-31T00:56:58;5.70;;;3.53;;
11699;SDS011;5906;51.660;6.674;2022-07-31T00:59:26;8.23;;;3.90;;
11699;SDS011;5906;51.660;6.674;2022-07-31T01:01:53;5.60;;;3.80;;
11699;SDS011;5906;51.660;6.674;2022-07-31T01:04:21;8.33;;;3.13;;
11699;SDS011;5906;51.660;6.674;2022-07-31T01:06:48;5.10;;;3.50;;
11699;SDS011;5906;51.660;6.674;2022-07-31T01:09:15;6.80;;;4.30;;
11699;SDS011;5906;51.660;6.674;2022-07-31T01:14:11;7.37;;;3.60;;
11699;SDS011;5906;51.660;6.674;2022-07-31T01:16:40;8.20;;;4.07;;
11699;SDS011;5906;51.660;6.674;2022-07-31T01:19:16;5.63;;;3.57;;
11699;SDS011;5906;51.660;6.674;2022-07-31T01:31:10;6.47;;;3.67;;
11699;SDS011;5906;51.660;6.674;2022-07-31T01:33:54;9.63;;;3.57;;
11699;SDS011;5906;51.660;6.674;2022-07-31T01:36:31;5.80;;;3.70;;
11699;SDS011;5906;51.660;6.674;2022-07-31T01:39:01;4.73;;;3.50;;
11699;SDS011;5906;51.660;6.674;2022-07-31T01:41:29;5.97;;;3.70;;
11699;SDS011;5906;51.660;6.674;2022-07-31T01:44:01;6.43;;;3.80;;
11699;SDS011;5906;51.660;6.674;2022-07-31T01:46:29;4.70;;;3.57;;
11699;SDS011;5906;51.660;6.674;2022-07-31T01:49:06;8.43;;;3.80;;
11699;SDS011;5906;51.660;6.674;2022-07-31T01:51:34;4.73;;;3.57;;
11699;SDS011;5906;51.660;6.674;2022-07-31T01:54:04;4.70;;;3.60;;
11699;SDS011;5906;51.660;6.674;2022-07-31T01:56:33;6.60;;;3.40;;
11699;SDS011;5906;51.660;6.674;2022-07-31T01:59:02;5.13;;;3.63;;
11699;SDS011;5906;51.660;6.674;2022-07-31T02:01:45;4.07;;;3.50;;
11699;SDS011;5906;51.660;6.674;2022-07-31T02:04:17;6.70;;;3.97;;
11699;SDS011;5906;51.660;6.674;2022-07-31T02:06:46;9.07;;;3.80;;
11699;SDS011;5906;51.660;6.674;2022-07-31T02:09:14;5.60;;;3.70;;
11699;SDS011;5906;51.660;6.674;2022-07-31T02:11:44;9.53;;;4.30;;
11699;SDS011;5906;51.660;6.674;2022-07-31T02:14:20;5.50;;;3.87;;
11699;SDS011;5906;51.660;6.674;2022-07-31T02:16:50;15.67;;;3.97;;
11699;SDS011;5906;51.660;6.674;2022-07-31T02:19:17;5.70;;;4.00;;
11699;SDS011;5906;51.660;6.674;2022-07-31T02:21:48;6.57;;;4.00;;
11699;SDS011;5906;51.660;6.674;2022-07-31T02:24:15;7.00;;;3.80;;
11699;SDS011;5906;51.660;6.674;2022-07-31T02:26:42;4.50;;;3.80;;
11699;SDS011;5906;51.660;6.674;2022-07-31T02:29:11;5.87;;;4.10;;
11699;SDS011;5906;51.660;6.674;2022-07-31T02:31:45;6.37;;;4.07;;
11699;SDS011;5906;51.660;6.674;2022-07-31T02:34:28;4.33;;;3.93;;
11699;SDS011;5906;51.660;6.674;2022-07-31T02:36:57;5.30;;;3.90;;
11699;SDS011;5906;51.660;6.674;2022-07-31T02:39:26;5.00;;;4.10;;
11699;SDS011;5906;51.660;6.674;2022-07-31T02:41:56;7.10;;;3.80;;
11699;SDS011;5906;51.660;6.674;2022-07-31T02:44:27;9.57;;;4.67;;
11699;SDS011;5906;51.660;6.674;2022-07-31T02:46:57;5.40;;;4.03;;
11699;SDS011;5906;51.660;6.674;2022-07-31T02:49:28;7.73;;;4.30;;
11699;SDS011;5906;51.660;6.674;2022-07-31T02:51:55;6.60;;;4.10;;
11699;SDS011;5906;51.660;6.674;2022-07-31T02:54:23;6.20;;;4.47;;
11699;SDS011;5906;51.660;6.674;2022-07-31T02:56:51;4.50;;;4.10;;
11699;SDS011;5906;51.660;6.674;2022-07-31T02:59:19;5.30;;;4.20;;
11699;SDS011;5906;51.660;6.674;2022-07-31T03:01:47;5.23;;;4.03;;
11699;SDS011;5906;51.660;6.674;2022-07-31T03:04:14;8.10;;;4.73;;
11699;SDS011;5906;51.660;6.674;2022-07-31T03:06:41;7.90;;;4.87;;
11699;SDS011;5906;51.660;6.674;2022-07-31T03:09:08;6.30;;;4.60;;
11699;SDS011;5906;51.660;6.674;2022-07-31T03:11:35;5.83;;;4.40;;
11699;SDS011;5906;51.660;6.674;2022-07-31T03:14:02;6.97;;;4.40;;
11699;SDS011;5906;51.660;6.674;2022-07-31T03:16:30;4.20;;;3.80;;
11699;SDS011;5906;51.660;6.674;2022-07-31T03:18:59;7.27;;;4.97;;
11699;SDS011;5906;51.660;6.674;2022-07-31T03:21:28;6.33;;;4.43;;
11699;SDS011;5906;51.660;6.674;2022-07-31T03:23:57;9.40;;;4.33;;
11699;SDS011;5906;51.660;6.674;2022-07-31T03:26:24;6.83;;;4.70;;
11699;SDS011;5906;51.660;6.674;2022-07-31T03:28:52;6.83;;;4.33;;
11699;SDS011;5906;51.660;6.674;2022-07-31T03:31:19;6.93;;;4.90;;
11699;SDS011;5906;51.660;6.674;2022-07-31T03:33:47;5.30;;;4.47;;
11699;SDS011;5906;51.660;6.674;2022-07-31T03:36:13;8.73;;;4.30;;
11699;SDS011;5906;51.660;6.674;2022-07-31T03:38:40;5.03;;;4.17;;
11699;SDS011;5906;51.660;6.674;2022-07-31T03:41:11;7.53;;;4.70;;
11699;SDS011;5906;51.660;6.674;2022-07-31T03:43:38;6.33;;;4.50;;
11699;SDS011;5906;51.660;6.674;2022-07-31T03:46:13;6.43;;;4.67;;
11699;SDS011;5906;51.660;6.674;2022-07-31T03:48:42;6.67;;;4.87;;
11699;SDS011;5906;51.660;6.674;2022-07-31T03:51:10;4.47;;;4.07;;
11699;SDS011;5906;51.660;6.674;2022-07-31T03:53:38;4.73;;;4.10;;
11699;SDS011;5906;51.660;6.674;2022-07-31T03:56:06;10.70;;;4.97;;
11699;SDS011;5906;51.660;6.674;2022-07-31T03:58:34;9.37;;;4.53;;
11699;SDS011;5906;51.660;6.674;2022-07-31T04:01:03;10.53;;;4.60;;
11699;SDS011;5906;51.660;6.674;2022-07-31T04:03:37;9.00;;;4.57;;
11699;SDS011;5906;51.660;6.674;2022-07-31T04:06:04;12.10;;;4.70;;
11699;SDS011;5906;51.660;6.674;2022-07-31T04:08:32;7.00;;;4.70;;
11699;SDS011;5906;51.660;6.674;2022-07-31T04:10:59;7.90;;;4.67;;
11699;SDS011;5906;51.660;6.674;2022-07-31T04:13:25;6.43;;;5.37;;
11699;SDS011;5906;51.660;6.674;2022-07-31T04:15:53;6.07;;;4.37;;
11699;SDS011;5906;51.660;6.674;2022-07-31T04:18:20;11.37;;;5.47;;
11699;SDS011;5906;51.660;6.674;2022-07-31T04:20:47;13.83;;;4.63;;
11699;SDS011;5906;51.660;6.674;2022-07-31T04:23:14;7.87;;;5.40;;
11699;SDS011;5906;51.660;6.674;2022-07-31T04:25:42;10.37;;;4.93;;
11699;SDS011;5906;51.660;6.674;2022-07-31T04:28:08;8.87;;;5.03;;
11699;SDS011;5906;51.660;6.674;2022-07-31T04:30:35;13.33;;;5.40;;
11699;SDS011;5906;51.660;6.674;2022-07-31T04:33:03;9.40;;;4.90;;
11699;SDS011;5906;51.660;6.674;2022-07-31T04:35:31;9.47;;;5.30;;
11699;SDS011;5906;51.660;6.674;2022-07-31T04:37:58;8.60;;;5.50;;
11699;SDS011;5906;51.660;6.674;2022-07-31T04:40:25;9.57;;;5.17;;
11699;SDS011;5906;51.660;6.674;2022-07-31T04:42:53;9.60;;;5.87;;
11699;SDS011;5906;51.660;6.674;2022-07-31T04:45:20;9.13;;;5.87;;
11699;SDS011;5906;51.660;6.674;2022-07-31T04:47:47;6.77;;;5.77;;
11699;SDS011;5906;51.660;6.674;2022-07-31T04:50:15;12.20;;;6.30;;
11699;SDS011;5906;51.660;6.674;2022-07-31T04:52:43;8.30;;;5.73;;
11699;SDS011;5906;51.660;6.674;2022-07-31T04:55:10;11.33;;;5.83;;
11699;SDS011;5906;51.660;6.674;2022-07-31T04:57:37;8.37;;;7.37;;
11699;SDS011;5906;51.660;6.674;2022-07-31T05:00:04;10.20;;;6.90;;
11699;SDS011;5906;51.660;6.674;2022-07-31T05:02:32;13.93;;;8.30;;
11699;SDS011;5906;51.660;6.674;2022-07-31T05:04:59;11.70;;;7.50;;
11699;SDS011;5906;51.660;6.674;2022-07-31T05:07:25;14.10;;;7.37;;
11699;SDS011;5906;51.660;6.674;2022-07-31T05:09:54;10.07;;;7.40;;
11699;SDS011;5906;51.660;6.674;2022-07-31T05:12:22;11.43;;;7.93;;
11699;SDS011;5906;51.660;6.674;2022-07-31T05:14:48;11.43;;;8.00;;
11699;SDS011;5906;51.660;6.674;2022-07-31T05:17:15;13.73;;;8.23;;
11699;SDS011;5906;51.660;6.674;2022-07-31T05:19:42;12.83;;;8.27;;
11699;SDS011;5906;51.660;6.674;2022-07-31T05:22:09;11.43;;;7.90;;
11699;SDS011;5906;51.660;6.674;2022-07-31T05:24:37;10.10;;;7.77;;
11699;SDS011;5906;51.660;6.674;2022-07-31T05:27:04;13.80;;;8.77;;
11699;SDS011;5906;51.660;6.674;2022-07-31T05:29:31;12.63;;;8.87;;
11699;SDS011;5906;51.660;6.674;2022-07-31T05:31:58;15.67;;;9.50;;
11699;SDS011;5906;51.660;6.674;2022-07-31T05:34:27;10.77;;;8.40;;
11699;SDS011;5906;51.660;6.674;2022-07-31T05:36:56;9.73;;;8.70;;
11699;SDS011;5906;51.660;6.674;2022-07-31T05:39:27;11.90;;;9.50;;
11699;SDS011;5906;51.660;6.674;2022-07-31T05:41:55;20.67;;;9.47;;
11699;SDS011;5906;51.660;6.674;2022-07-31T05:44:22;12.50;;;9.80;;
11699;SDS011;5906;51.660;6.674;2022-07-31T05:46:49;15.67;;;9.90;;
11699;SDS011;5906;51.660;6.674;2022-07-31T05:49:15;19.10;;;11.00;;
11699;SDS011;5906;51.660;6.674;2022-07-31T05:51:42;16.80;;;10.07;;
11699;SDS011;5906;51.660;6.674;2022-07-31T05:54:10;21.67;;;9.50;;
11699;SDS011;5906;51.660;6.674;2022-07-31T05:56:36;22.00;;;10.83;;
11699;SDS011;5906;51.660;6.674;2022-07-31T05:59:03;15.67;;;9.63;;
11699;SDS011;5906;51.660;6.674;2022-07-31T06:01:30;18.70;;;10.27;;
11699;SDS011;5906;51.660;6.674;2022-07-31T06:03:57;17.80;;;9.10;;
11699;SDS011;5906;51.660;6.674;2022-07-31T06:06:24;21.20;;;9.83;;
11699;SDS011;5906;51.660;6.674;2022-07-31T06:08:51;15.17;;;9.33;;
11699;SDS011;5906;51.660;6.674;2022-07-31T06:11:18;21.93;;;10.40;;
11699;SDS011;5906;51.660;6.674;2022-07-31T06:13:45;15.67;;;10.20;;
11699;SDS011;5906;51.660;6.674;2022-07-31T06:16:12;14.27;;;8.60;;
11699;SDS011;5906;51.660;6.674;2022-07-31T06:18:40;18.23;;;9.90;;
11699;SDS011;5906;51.660;6.674;2022-07-31T06:21:07;10.73;;;8.87;;
11699;SDS011;5906;51.660;6.674;2022-07-31T06:23:35;13.83;;;9.83;;
11699;SDS011;5906;51.660;6.674;2022-07-31T06:26:02;13.03;;;9.63;;
11699;SDS011;5906;51.660;6.674;2022-07-31T06:28:30;12.10;;;9.80;;
11699;SDS011;5906;51.660;6.674;2022-07-31T06:31:16;17.33;;;9.80;;
11699;SDS011;5906;51.660;6.674;2022-07-31T06:33:47;19.23;;;11.50;;
11699;SDS011;5906;51.660;6.674;2022-07-31T06:36:16;22.23;;;11.77;;
11699;SDS011;5906;51.660;6.674;2022-07-31T06:38:43;21.10;;;11.33;;
11699;SDS011;5906;51.660;6.674;2022-07-31T06:41:11;18.90;;;11.40;;
11699;SDS011;5906;51.660;6.674;2022-07-31T06:43:58;20.60;;;11.90;;
11699;SDS011;5906;51.660;6.674;2022-07-31T06:46:25;20.67;;;11.60;;
11699;SDS011;5906;51.660;6.674;2022-07-31T06:48:52;23.83;;;10.97;;
11699;SDS011;5906;51.660;6.674;2022-07-31T06:51:19;17.67;;;10.97;;
11699;SDS011;5906;51.660;6.674;2022-07-31T06:54:02;15.50;;;10.47;;
11699;SDS011;5906;51.660;6.674;2022-07-31T06:56:30;15.03;;;9.17;;
11699;SDS011;5906;51.660;6.674;2022-07-31T06:58:58;13.90;;;9.90;;
11699;SDS011;5906;51.660;6.674;2022-07-31T07:01:25;16.83;;;10.73;;
11699;SDS011;5906;51.660;6.674;2022-07-31T07:03:53;15.70;;;8.80;;
11699;SDS011;5906;51.660;6.674;2022-07-31T07:06:21;16.67;;;8.80;;
11699;SDS011;5906;51.660;6.674;2022-07-31T07:08:48;13.67;;;8.37;;
11699;SDS011;5906;51.660;6.674;2022-07-31T07:11:15;10.03;;;7.50;;
11699;SDS011;5906;51.660;6.674;2022-07-31T07:13:42;11.77;;;7.50;;
11699;SDS011;5906;51.660;6.674;2022-07-31T07:16:10;13.17;;;6.93;;
11699;SDS011;5906;51.660;6.674;2022-07-31T07:18:37;13.17;;;7.00;;
11699;SDS011;5906;51.660;6.674;2022-07-31T07:21:04;12.03;;;7.17;;
11699;SDS011;5906;51.660;6.674;2022-07-31T07:23:32;12.87;;;6.70;;
11699;SDS011;5906;51.660;6.674;2022-07-31T07:25:59;8.00;;;6.50;;
11699;SDS011;5906;51.660;6.674;2022-07-31T07:28:25;13.13;;;6.60;;
11699;SDS011;5906;51.660;6.674;2022-07-31T07:30:56;8.90;;;6.73;;
11699;SDS011;5906;51.660;6.674;2022-07-31T07:33:23;9.83;;;5.97;;
11699;SDS011;5906;51.660;6.674;2022-07-31T07:36:10;14.40;;;6.97;;
11699;SDS011;5906;51.660;6.674;2022-07-31T07:38:50;12.60;;;6.83;;
11699;SDS011;5906;51.660;6.674;2022-07-31T07:41:20;13.00;;;6.77;;
11699;SDS011;5906;51.660;6.674;2022-07-31T07:43:48;12.03;;;7.00;;
11699;SDS011;5906;51.660;6.674;2022-07-31T07:46:18;11.10;;;6.27;;
11699;SDS011;5906;51.660;6.674;2022-07-31T07:48:49;10.17;;;6.07;;
11699;SDS011;5906;51.660;6.674;2022-07-31T07:51:16;9.87;;;5.73;;
11699;SDS011;5906;51.660;6.674;2022-07-31T07:53:44;7.73;;;6.30;;
11699;SDS011;5906;51.660;6.674;2022-07-31T07:56:10;13.23;;;6.07;;
11699;SDS011;5906;51.660;6.674;2022-07-31T07:58:37;11.43;;;6.47;;
11699;SDS011;5906;51.660;6.674;2022-07-31T08:01:04;7.83;;;6.27;;
11699;SDS011;5906;51.660;6.674;2022-07-31T08:03:31;8.90;;;5.80;;
11699;SDS011;5906;51.660;6.674;2022-07-31T08:06:18;10.93;;;6.50;;
11699;SDS011;5906;51.660;6.674;2022-07-31T08:08:46;11.93;;;6.67;;
11699;SDS011;5906;51.660;6.674;2022-07-31T08:11:13;10.37;;;6.60;;
11699;SDS011;5906;51.660;6.674;2022-07-31T08:13:43;10.77;;;6.57;;
11699;SDS011;5906;51.660;6.674;2022-07-31T08:16:16;9.27;;;6.37;;
11699;SDS011;5906;51.660;6.674;2022-07-31T08:18:47;8.90;;;6.07;;
11699;SDS011;5906;51.660;6.674;2022-07-31T08:21:15;7.80;;;6.07;;
11699;SDS011;5906;51.660;6.674;2022-07-31T08:23:43;13.03;;;6.77;;
11699;SDS011;5906;51.660;6.674;2022-07-31T08:26:09;7.60;;;6.30;;
11699;SDS011;5906;51.660;6.674;2022-07-31T08:28:39;8.00;;;6.40;;
11699;SDS011;5906;51.660;6.674;2022-07-31T08:31:15;9.20;;;6.43;;
11699;SDS011;5906;51.660;6.674;2022-07-31T08:33:42;12.60;;;6.90;;
11699;SDS011;5906;51.660;6.674;2022-07-31T08:36:08;7.03;;;5.90;;
11699;SDS011;5906;51.660;6.674;2022-07-31T08:38:35;13.97;;;6.90;;
11699;SDS011;5906;51.660;6.674;2022-07-31T08:41:03;12.47;;;6.67;;
11699;SDS011;5906;51.660;6.674;2022-07-31T08:43:30;10.80;;;7.00;;
11699;SDS011;5906;51.660;6.674;2022-07-31T08:46:17;8.83;;;6.23;;
11699;SDS011;5906;51.660;6.674;2022-07-31T08:48:45;9.10;;;5.83;;
11699;SDS011;5906;51.660;6.674;2022-07-31T08:51:13;11.10;;;6.10;;
11699;SDS011;5906;51.660;6.674;2022-07-31T08:53:42;7.20;;;5.37;;
11699;SDS011;5906;51.660;6.674;2022-07-31T08:56:10;10.80;;;5.47;;
11699;SDS011;5906;51.660;6.674;2022-07-31T08:58:38;12.30;;;6.03;;
11699;SDS011;5906;51.660;6.674;2022-07-31T09:01:06;7.10;;;5.70;;
11699;SDS011;5906;51.660;6.674;2022-07-31T09:03:36;8.07;;;5.47;;
11699;SDS011;5906;51.660;6.674;2022-07-31T09:06:04;7.03;;;6.10;;
11699;SDS011;5906;51.660;6.674;2022-07-31T09:08:32;9.87;;;6.20;;
11699;SDS011;5906;51.660;6.674;2022-07-31T09:11:10;14.73;;;6.20;;
11699;SDS011;5906;51.660;6.674;2022-07-31T09:13:50;8.90;;;6.10;;
11699;SDS011;5906;51.660;6.674;2022-07-31T09:16:28;10.53;;;6.03;;
11699;SDS011;5906;51.660;6.674;2022-07-31T09:18:57;11.30;;;7.20;;
11699;SDS011;5906;51.660;6.674;2022-07-31T09:21:49;6.87;;;5.77;;
11699;SDS011;5906;51.660;6.674;2022-07-31T09:24:28;9.97;;;7.13;;
11699;SDS011;5906;51.660;6.674;2022-07-31T09:27:05;12.63;;;6.90;;
11699;SDS011;5906;51.660;6.674;2022-07-31T09:32:19;7.87;;;5.87;;
11699;SDS011;5906;51.660;6.674;2022-07-31T09:34:46;7.60;;;5.20;;
11699;SDS011;5906;51.660;6.674;2022-07-31T09:37:15;8.83;;;6.20;;
11699;SDS011;5906;51.660;6.674;2022-07-31T09:39:54;9.37;;;5.70;;
11699;SDS011;5906;51.660;6.674;2022-07-31T09:42:22;7.17;;;5.70;;
11699;SDS011;5906;51.660;6.674;2022-07-31T09:45:00;7.50;;;5.00;;
11699;SDS011;5906;51.660;6.674;2022-07-31T09:47:30;6.73;;;5.20;;
11699;SDS011;5906;51.660;6.674;2022-07-31T09:49:58;5.23;;;4.57;;
11699;SDS011;5906;51.660;6.674;2022-07-31T09:52:29;7.40;;;4.73;;
11699;SDS011;5906;51.660;6.674;2022-07-31T09:55:05;7.80;;;4.67;;
11699;SDS011;5906;51.660;6.674;2022-07-31T09:57:55;5.13;;;4.20;;
11699;SDS011;5906;51.660;6.674;2022-07-31T10:00:23;6.70;;;4.70;;
11699;SDS011;5906;51.660;6.674;2022-07-31T10:02:52;6.00;;;4.10;;
11699;SDS011;5906;51.660;6.674;2022-07-31T10:05:21;6.57;;;3.83;;
11699;SDS011;5906;51.660;6.674;2022-07-31T10:07:50;6.30;;;3.77;;
11699;SDS011;5906;51.660;6.674;2022-07-31T10:10:18;5.20;;;4.20;;
11699;SDS011;5906;51.660;6.674;2022-07-31T10:12:48;3.80;;;3.40;;
11699;SDS011;5906;51.660;6.674;2022-07-31T10:15:18;4.30;;;3.90;;
11699;SDS011;5906;51.660;6.674;2022-07-31T10:17:46;6.40;;;4.90;;
11699;SDS011;5906;51.660;6.674;2022-07-31T10:20:18;7.10;;;3.47;;
11699;SDS011;5906;51.660;6.674;2022-07-31T10:22:48;6.10;;;3.70;;
11699;SDS011;5906;51.660;6.674;2022-07-31T10:25:20;4.60;;;3.63;;
11699;SDS011;5906;51.660;6.674;2022-07-31T10:27:53;5.80;;;3.60;;
11699;SDS011;5906;51.660;6.674;2022-07-31T10:30:23;5.10;;;3.80;;
11699;SDS011;5906;51.660;6.674;2022-07-31T10:32:54;4.30;;;3.50;;
11699;SDS011;5906;51.660;6.674;2022-07-31T10:35:23;8.77;;;4.80;;
11699;SDS011;5906;51.660;6.674;2022-07-31T10:38:16;9.97;;;4.90;;
11699;SDS011;5906;51.660;6.674;2022-07-31T10:40:54;6.10;;;4.80;;
11699;SDS011;5906;51.660;6.674;2022-07-31T10:43:36;6.50;;;4.30;;
11699;SDS011;5906;51.660;6.674;2022-07-31T10:46:08;6.23;;;3.57;;
11699;SDS011;5906;51.660;6.674;2022-07-31T10:48:35;6.73;;;3.57;;
11699;SDS011;5906;51.660;6.674;2022-07-31T10:51:03;7.60;;;3.77;;
11699;SDS011;5906;51.660;6.674;2022-07-31T10:53:32;6.87;;;3.40;;
11699;SDS011;5906;51.660;6.674;2022-07-31T10:56:16;4.10;;;3.23;;
11699;SDS011;5906;51.660;6.674;2022-07-31T10:58:50;4.97;;;3.73;;
11699;SDS011;5906;51.660;6.674;2022-07-31T11:01:21;7.33;;;4.23;;
11699;SDS011;5906;51.660;6.674;2022-07-31T11:03:52;4.87;;;3.80;;
11699;SDS011;5906;51.660;6.674;2022-07-31T11:06:25;5.47;;;3.93;;
11699;SDS011;5906;51.660;6.674;2022-07-31T11:08:53;6.50;;;3.20;;
11699;SDS011;5906;51.660;6.674;2022-07-31T11:11:32;7.40;;;3.23;;
11699;SDS011;5906;51.660;6.674;2022-07-31T11:14:02;11.10;;;3.53;;
11699;SDS011;5906;51.660;6.674;2022-07-31T11:16:29;4.43;;;3.50;;
11699;SDS011;5906;51.660;6.674;2022-07-31T11:18:57;5.33;;;3.60;;
11699;SDS011;5906;51.660;6.674;2022-07-31T11:21:35;5.80;;;3.80;;
11699;SDS011;5906;51.660;6.674;2022-07-31T11:26:56;4.47;;;3.43;;
11699;SDS011;5906;51.660;6.674;2022-07-31T11:29:36;9.77;;;3.63;;
11699;SDS011;5906;51.660;6.674;2022-07-31T11:32:24;8.67;;;3.83;;
11699;SDS011;5906;51.660;6.674;2022-07-31T11:34:53;4.37;;;3.27;;
11699;SDS011;5906;51.660;6.674;2022-07-31T11:37:21;3.90;;;3.50;;
11699;SDS011;5906;51.660;6.674;2022-07-31T11:39:51;4.30;;;3.40;;
11699;SDS011;5906;51.660;6.674;2022-07-31T11:42:19;5.30;;;3.13;;
11699;SDS011;5906;51.660;6.674;2022-07-31T11:45:00;5.43;;;3.37;;
11699;SDS011;5906;51.660;6.674;2022-07-31T11:47:41;3.77;;;3.20;;
11699;SDS011;5906;51.660;6.674;2022-07-31T11:50:41;4.53;;;3.57;;
11699;SDS011;5906;51.660;6.674;2022-07-31T11:53:09;3.93;;;2.87;;
11699;SDS011;5906;51.660;6.674;2022-07-31T11:56:10;3.33;;;3.03;;
11699;SDS011;5906;51.660;6.674;2022-07-31T11:58:30;6.90;;;3.40;;
11699;SDS011;5906;51.660;6.674;2022-07-31T12:00:58;4.50;;;3.40;;
11699;SDS011;5906;51.660;6.674;2022-07-31T12:03:30;3.90;;;2.93;;
11699;SDS011;5906;51.660;6.674;2022-07-31T12:06:08;5.77;;;3.40;;
11699;SDS011;5906;51.660;6.674;2022-07-31T12:08:36;4.40;;;3.43;;
11699;SDS011;5906;51.660;6.674;2022-07-31T12:11:04;4.57;;;3.60;;
11699;SDS011;5906;51.660;6.674;2022-07-31T12:13:33;3.90;;;3.20;;
11699;SDS011;5906;51.660;6.674;2022-07-31T12:16:09;7.33;;;3.10;;
11699;SDS011;5906;51.660;6.674;2022-07-31T12:18:55;3.63;;;3.33;;
11699;SDS011;5906;51.660;6.674;2022-07-31T12:21:36;5.33;;;3.30;;
11699;SDS011;5906;51.660;6.674;2022-07-31T12:24:09;3.60;;;3.20;;
11699;SDS011;5906;51.660;6.674;2022-07-31T12:26:38;7.10;;;3.60;;
11699;SDS011;5906;51.660;6.674;2022-07-31T12:29:10;3.50;;;3.00;;
11699;SDS011;5906;51.660;6.674;2022-07-31T12:31:50;3.67;;;3.33;;
11699;SDS011;5906;51.660;6.674;2022-07-31T12:34:38;4.03;;;3.20;;
11699;SDS011;5906;51.660;6.674;2022-07-31T12:37:09;6.17;;;3.40;;
11699;SDS011;5906;51.660;6.674;2022-07-31T12:39:38;4.30;;;3.10;;
11699;SDS011;5906;51.660;6.674;2022-07-31T12:42:26;3.57;;;3.27;;
11699;SDS011;5906;51.660;6.674;2022-07-31T12:45:04;3.43;;;2.80;;
11699;SDS011;5906;51.660;6.674;2022-07-31T12:47:45;4.57;;;3.20;;
11699;SDS011;5906;51.660;6.674;2022-07-31T12:50:18;3.57;;;3.27;;
11699;SDS011;5906;51.660;6.674;2022-07-31T12:52:49;5.63;;;3.30;;
11699;SDS011;5906;51.660;6.674;2022-07-31T12:55:16;9.70;;;3.63;;
11699;SDS011;5906;51.660;6.674;2022-07-31T12:57:43;4.57;;;3.70;;
11699;SDS011;5906;51.660;6.674;2022-07-31T13:00:17;5.03;;;3.53;;
11699;SDS011;5906;51.660;6.674;2022-07-31T13:02:49;6.00;;;3.50;;
11699;SDS011;5906;51.660;6.674;2022-07-31T13:05:17;9.80;;;3.70;;
11699;SDS011;5906;51.660;6.674;2022-07-31T13:07:45;3.53;;;3.23;;
11699;SDS011;5906;51.660;6.674;2022-07-31T13:10:12;4.90;;;3.20;;
11699;SDS011;5906;51.660;6.674;2022-07-31T13:12:47;11.97;;;3.43;;
11699;SDS011;5906;51.660;6.674;2022-07-31T13:15:17;3.70;;;3.20;;
11699;SDS011;5906;51.660;6.674;2022-07-31T13:17:47;3.40;;;3.10;;
11699;SDS011;5906;51.660;6.674;2022-07-31T13:20:16;3.87;;;3.57;;
11699;SDS011;5906;51.660;6.674;2022-07-31T13:22:43;5.57;;;3.67;;
11699;SDS011;5906;51.660;6.674;2022-07-31T13:25:10;5.60;;;3.60;;
11699;SDS011;5906;51.660;6.674;2022-07-31T13:27:37;4.03;;;3.50;;
11699;SDS011;5906;51.660;6.674;2022-07-31T13:30:06;4.97;;;3.70;;
11699;SDS011;5906;51.660;6.674;2022-07-31T13:32:34;3.60;;;3.30;;
11699;SDS011;5906;51.660;6.674;2022-07-31T13:35:01;3.93;;;3.50;;
11699;SDS011;5906;51.660;6.674;2022-07-31T13:37:48;5.73;;;3.00;;
11699;SDS011;5906;51.660;6.674;2022-07-31T13:40:15;5.73;;;3.50;;
11699;SDS011;5906;51.660;6.674;2022-07-31T13:42:44;4.83;;;3.40;;
11699;SDS011;5906;51.660;6.674;2022-07-31T13:45:10;4.50;;;3.10;;
11699;SDS011;5906;51.660;6.674;2022-07-31T13:47:37;3.40;;;3.10;;
11699;SDS011;5906;51.660;6.674;2022-07-31T13:50:17;4.13;;;3.30;;
11699;SDS011;5906;51.660;6.674;2022-07-31T13:52:44;6.17;;;3.40;;
11699;SDS011;5906;51.660;6.674;2022-07-31T13:55:11;8.37;;;3.70;;
11699;SDS011;5906;51.660;6.674;2022-07-31T13:57:38;3.80;;;3.40;;
11699;SDS011;5906;51.660;6.674;2022-07-31T14:00:05;3.70;;;3.03;;
11699;SDS011;5906;51.660;6.674;2022-07-31T14:02:33;5.93;;;3.40;;
11699;SDS011;5906;51.660;6.674;2022-07-31T14:04:59;9.40;;;3.47;;
11699;SDS011;5906;51.660;6.674;2022-07-31T14:07:26;3.73;;;3.43;;
11699;SDS011;5906;51.660;6.674;2022-07-31T14:10:13;3.53;;;3.17;;
11699;SDS011;5906;51.660;6.674;2022-07-31T14:12:45;5.93;;;3.30;;
11699;SDS011;5906;51.660;6.674;2022-07-31T14:15:12;4.30;;;3.87;;
11699;SDS011;5906;51.660;6.674;2022-07-31T14:17:39;3.57;;;3.23;;
11699;SDS011;5906;51.660;6.674;2022-07-31T14:20:06;4.60;;;3.40;;
11699;SDS011;5906;51.660;6.674;2022-07-31T14:22:34;5.10;;;3.53;;
11699;SDS011;5906;51.660;6.674;2022-07-31T14:25:01;5.20;;;3.37;;
11699;SDS011;5906;51.660;6.674;2022-07-31T14:27:28;5.23;;;3.47;;
11699;SDS011;5906;51.660;6.674;2022-07-31T14:29:55;5.73;;;3.80;;
11699;SDS011;5906;51.660;6.674;2022-07-31T14:32:22;3.50;;;3.20;;
11699;SDS011;5906;51.660;6.674;2022-07-31T14:34:50;3.30;;;3.00;;
11699;SDS011;5906;51.660;6.674;2022-07-31T14:37:17;4.27;;;3.40;;
11699;SDS011;5906;51.660;6.674;2022-07-31T14:39:46;6.20;;;3.40;;
11699;SDS011;5906;51.660;6.674;2022-07-31T14:42:12;7.63;;;3.63;;
11699;SDS011;5906;51.660;6.674;2022-07-31T14:44:39;4.37;;;3.57;;
11699;SDS011;5906;51.660;6.674;2022-07-31T14:47:08;10.63;;;3.40;;
11699;SDS011;5906;51.660;6.674;2022-07-31T14:49:36;3.77;;;3.37;;
11699;SDS011;5906;51.660;6.674;2022-07-31T14:52:24;4.43;;;3.47;;
11699;SDS011;5906;51.660;6.674;2022-07-31T14:54:52;6.17;;;4.00;;
11699;SDS011;5906;51.660;6.674;2022-07-31T14:57:19;3.97;;;3.13;;
11699;SDS011;5906;51.660;6.674;2022-07-31T14:59:47;5.97;;;3.90;;
11699;SDS011;5906;51.660;6.674;2022-07-31T15:02:15;4.33;;;3.60;;
11699;SDS011;5906;51.660;6.674;2022-07-31T15:04:48;4.73;;;3.30;;
11699;SDS011;5906;51.660;6.674;2022-07-31T15:07:16;4.10;;;2.90;;
11699;SDS011;5906;51.660;6.674;2022-07-31T15:10:04;4.93;;;3.20;;
11699;SDS011;5906;51.660;6.674;2022-07-31T15:12:32;5.53;;;3.20;;
11699;SDS011;5906;51.660;6.674;2022-07-31T15:14:59;8.40;;;4.00;;
11699;SDS011;5906;51.660;6.674;2022-07-31T15:17:26;3.90;;;3.50;;
11699;SDS011;5906;51.660;6.674;2022-07-31T15:19:53;6.00;;;3.33;;
11699;SDS011;5906;51.660;6.674;2022-07-31T15:22:20;8.63;;;3.50;;
11699;SDS011;5906;51.660;6.674;2022-07-31T15:24:47;5.33;;;3.50;;
11699;SDS011;5906;51.660;6.674;2022-07-31T15:27:18;9.63;;;3.40;;
11699;SDS011;5906;51.660;6.674;2022-07-31T15:29:47;4.30;;;3.50;;
11699;SDS011;5906;51.660;6.674;2022-07-31T15:32:35;5.20;;;3.60;;